Time;durP1;ratioP1;P1;durP2;ratioP2;P2;SDS_P1;SDS_P2;PMS_P1;PMS_P2;Temp;Humidity;BMP_temperature;BMP_pressure;BME280_temperature;BME280_humidity;BME280_pressure;Samples;Min_cycle;Max_cycle;Signal;HPM_P1;HPM_P2
2023/02/25 00:00:29;;;;;;;78.70;38.70;;;4.50;99.90;;;;;;5048450;28;20489;-77
2023/02/25 00:02:56;;;;;;;86.63;39.97;;;4.50;99.90;;;;;;5030444;28;20467;-74
2023/02/25 00:05:22;;;;;;;69.63;36.28;;;4.40;99.90;;;;;;5030617;28;20032;-74
2023/02/25 00:07:48;;;;;;;;;;;4.40;99.90;;;;;;5030778;28;20032;-74
2023/02/25 00:10:15;;;;;;;63.85;31.63;;;4.40;99.90;;;;;;5030261;28;19958;-74
2023/02/25 00:12:41;;;;;;;71.97;35.58;;;4.30;99.90;;;;;;5048031;28;20029;-75
2023/02/25 00:15:08;;;;;;;53.92;27.88;;;4.30;99.90;;;;;;5048431;28;20032;-73
2023/02/25 00:17:35;;;;;;;55.60;29.17;;;4.40;99.90;;;;;;5030588;28;20749;-74
2023/02/25 00:20:01;;;;;;;58.00;30.05;;;4.40;99.90;;;;;;5048228;28;20039;-74
2023/02/25 00:22:29;;;;;;;;;;;4.40;99.90;;;;;;5048607;28;20419;-75
2023/02/25 00:24:56;;;;;;;70.78;32.63;;;4.30;99.90;;;;;;5030310;28;19943;-74
2023/02/25 00:27:24;;;;;;;66.75;31.48;;;4.30;99.90;;;;;;5048332;28;20033;-73
2023/02/25 00:29:53;;;;;;;62.33;29.85;;;4.20;99.90;;;;;;5048392;28;20040;-74
2023/02/25 00:32:20;;;;;;;55.28;27.45;;;4.20;99.90;;;;;;5030309;28;20037;-74
2023/02/25 00:34:46;;;;;;;53.58;28.90;;;4.20;99.90;;;;;;5030253;28;20962;-74
2023/02/25 00:37:13;;;;;;;64.15;33.88;;;4.10;99.90;;;;;;5030068;28;20080;-74
2023/02/25 00:39:41;;;;;;;65.25;29.55;;;4.10;99.90;;;;;;5048917;28;20021;-75
2023/02/25 00:42:15;;;;;;;57.83;29.55;;;4.10;99.90;;;;;;5052247;28;20068;-75
2023/02/25 00:44:49;;;;;;;59.25;30.63;;;4.00;99.90;;;;;;5052120;28;20029;-74
2023/02/25 00:47:17;;;;;;;59.10;28.55;;;4.00;99.90;;;;;;5034194;28;20485;-75
2023/02/25 00:49:46;;;;;;;52.30;26.50;;;4.00;99.90;;;;;;5034027;28;20029;-74
2023/02/25 00:52:12;;;;;;;61.15;26.73;;;4.10;99.90;;;;;;5051910;28;20009;-74
2023/02/25 00:54:38;;;;;;;;;;;4.00;99.90;;;;;;5052427;28;20033;-75
2023/02/25 00:57:04;;;;;;;58.58;31.63;;;4.00;99.90;;;;;;5033997;28;20377;-73
2023/02/25 00:59:30;;;;;;;;;;;3.90;99.90;;;;;;5052408;28;20658;-74
2023/02/25 01:01:55;;;;;;;60.38;30.55;;;3.90;99.90;;;;;;5051692;28;19908;-74
2023/02/25 01:04:21;;;;;;;;;;;3.90;99.90;;;;;;5034019;28;20029;-74
2023/02/25 01:06:46;;;;;;;63.88;30.52;;;3.90;99.90;;;;;;5051776;28;19909;-73
2023/02/25 01:09:15;;;;;;;;;;;3.90;99.90;;;;;;5052680;28;20033;-75
2023/02/25 01:11:43;;;;;;;56.40;29.33;;;3.80;99.90;;;;;;5033685;28;20395;-74
2023/02/25 01:14:15;;;;;;;64.55;31.55;;;3.90;99.90;;;;;;5033773;28;20531;-73
2023/02/25 01:16:41;;;;;;;67.50;32.65;;;3.80;99.90;;;;;;5033603;28;20025;-73
2023/02/25 01:19:08;;;;;;;;;;;3.80;99.90;;;;;;5034060;28;20029;-74
2023/02/25 01:21:40;;;;;;;67.75;33.60;;;3.80;99.90;;;;;;5051372;28;19936;-74
2023/02/25 01:24:09;;;;;;;66.57;34.90;;;3.80;99.90;;;;;;5051340;28;20060;-74
2023/02/25 01:26:38;;;;;;;63.05;35.05;;;3.80;99.90;;;;;;5051263;28;20025;-75
2023/02/25 01:29:08;;;;;;;69.32;33.40;;;3.80;99.90;;;;;;5051278;28;20033;-74
2023/02/25 01:31:34;;;;;;;65.22;34.70;;;3.80;99.90;;;;;;5050692;28;20025;-74
2023/02/25 01:34:00;;;;;;;;;;;3.80;99.90;;;;;;5051765;28;20634;-75
2023/02/25 01:36:28;;;;;;;71.05;34.92;;;3.80;99.90;;;;;;5050855;28;20376;-74
2023/02/25 01:38:55;;;;;;;61.17;30.80;;;3.80;99.90;;;;;;5049800;28;20059;-74
2023/02/25 01:41:22;;;;;;;63.05;32.33;;;3.80;99.90;;;;;;5049935;28;20059;-74
2023/02/25 01:44:22;;;;;;;52.50;29.20;;;3.80;99.90;;;;;;5031860;28;20068;-74
2023/02/25 01:46:50;;;;;;;53.85;27.70;;;3.80;99.90;;;;;;5049728;28;20029;-73
2023/02/25 01:49:37;;;;;;;58.65;26.58;;;3.70;99.90;;;;;;5049363;28;20029;-74
2023/02/25 01:52:06;;;;;;;54.63;26.23;;;3.70;99.90;;;;;;5031412;28;20083;-74
2023/02/25 01:54:34;;;;;;;57.92;26.02;;;3.70;99.90;;;;;;5049586;28;20100;-74
2023/02/25 01:57:00;;;;;;;61.47;27.15;;;3.70;99.90;;;;;;5049760;28;20497;-74
2023/02/25 01:59:27;;;;;;;;;;;3.60;99.90;;;;;;5032318;28;20032;-74
2023/02/25 02:01:53;;;;;;;56.20;27.52;;;3.60;99.90;;;;;;5049579;28;19916;-74
2023/02/25 02:04:19;;;;;;;;;;;3.60;99.90;;;;;;5032222;28;20502;-74
2023/02/25 02:06:47;;;;;;;51.08;25.38;;;3.60;99.90;;;;;;5031408;28;19996;-73
2023/02/25 02:09:20;;;;;;;54.00;26.02;;;3.50;99.90;;;;;;5049337;28;20037;-74
2023/02/25 02:11:45;;;;;;;56.30;27.55;;;3.60;99.90;;;;;;5049048;28;20043;-73
2023/02/25 02:14:13;;;;;;;;;;;3.50;99.90;;;;;;5049894;28;20021;-74
2023/02/25 02:16:54;;;;;;;56.65;25.40;;;3.60;99.90;;;;;;5049072;28;20031;-74
2023/02/25 02:19:42;;;;;;;50.22;26.17;;;3.60;99.90;;;;;;5031332;28;20036;-73
2023/02/25 02:22:13;;;;;;;62.20;28.13;;;3.60;99.90;;;;;;5049116;28;20040;-74
2023/02/25 02:25:02;;;;;;;49.47;24.27;;;3.60;99.90;;;;;;5031267;28;20501;-74
2023/02/25 02:27:47;;;;;;;45.53;25.05;;;3.60;99.90;;;;;;5010595;28;20513;-72
2023/02/25 02:30:25;;;;;;;52.97;25.63;;;3.70;99.90;;;;;;5049134;28;20029;-74
2023/02/25 02:33:03;;;;;;;51.35;26.77;;;3.80;99.90;;;;;;5030928;28;20123;-73
2023/02/25 02:35:56;;;;;;;47.83;26.23;;;3.80;99.90;;;;;;5049077;28;20021;-74
2023/02/25 02:38:40;;;;;;;52.15;26.83;;;4.00;99.90;;;;;;4989140;28;1223891;-75
2023/02/25 02:41:25;;;;;;;51.15;25.77;;;4.10;99.90;;;;;;5032182;28;20033;-75
2023/02/25 02:43:51;;;;;;;52.03;25.80;;;4.10;99.90;;;;;;5032105;28;20037;-74
2023/02/25 02:46:16;;;;;;;;;;;4.10;99.90;;;;;;5032452;28;20025;-73
2023/02/25 02:49:05;;;;;;;70.82;29.63;;;4.10;99.90;;;;;;5049855;28;19913;-74
2023/02/25 02:51:36;;;;;;;117.15;46.65;;;4.20;99.90;;;;;;5032000;28;20128;-74
2023/02/25 02:54:05;;;;;;;102.63;42.08;;;4.30;99.90;;;;;;5031822;28;20493;-72
2023/02/25 02:56:33;;;;;;;79.30;34.13;;;4.30;99.90;;;;;;5031857;28;20143;-74
2023/02/25 02:59:11;;;;;;;101.22;41.03;;;4.30;99.90;;;;;;5031608;28;20029;-74
2023/02/25 03:01:51;;;;;;;84.03;38.65;;;4.40;99.90;;;;;;5049338;28;20490;-75
2023/02/25 03:04:22;;;;;;;65.70;31.85;;;4.50;99.90;;;;;;5048886;28;20040;-74
2023/02/25 03:06:52;;;;;;;72.60;34.65;;;4.60;99.90;;;;;;5049392;28;20041;-75
2023/02/25 03:09:51;;;;;;;65.35;30.95;;;4.70;99.90;;;;;;5049367;28;20110;-75
2023/02/25 03:12:17;;;;;;;69.90;35.90;;;4.80;99.90;;;;;;5009118;28;20041;-75
2023/02/25 03:14:43;;;;;;;52.88;29.13;;;4.80;99.90;;;;;;5049067;28;20025;-75
2023/02/25 03:17:18;;;;;;;;;;;4.80;99.90;;;;;;5031750;28;20029;-74
2023/02/25 03:19:50;;;;;;;51.65;26.92;;;4.70;99.90;;;;;;5031261;28;19955;-74
2023/02/25 03:22:22;;;;;;;54.08;27.42;;;4.80;99.90;;;;;;5049060;28;20064;-74
2023/02/25 03:24:52;;;;;;;52.00;25.55;;;4.80;99.90;;;;;;5030790;28;20043;-75
2023/02/25 03:27:26;;;;;;;47.85;24.73;;;4.90;99.90;;;;;;5049138;28;20025;-74
2023/02/25 03:30:02;;;;;;;44.97;21.48;;;5.00;99.90;;;;;;5031124;28;20020;-74
2023/02/25 03:32:30;;;;;;;47.95;21.75;;;5.10;99.90;;;;;;5048950;28;20102;-74
2023/02/25 03:34:58;;;;;;;55.22;23.58;;;5.20;99.90;;;;;;5049127;28;20053;-74
2023/02/25 03:37:30;;;;;;;52.35;24.83;;;5.30;99.90;;;;;;5030833;28;20041;-74
2023/02/25 03:40:00;;;;;;;52.05;24.67;;;5.40;99.90;;;;;;5049006;28;20036;-75
2023/02/25 03:42:33;;;;;;;50.30;24.85;;;5.50;99.90;;;;;;5048943;28;20029;-74
2023/02/25 03:45:04;;;;;;;43.08;24.67;;;5.60;99.90;;;;;;5048872;28;20033;-74
2023/02/25 03:47:33;;;;;;;45.03;22.08;;;5.70;99.90;;;;;;5048843;28;20628;-74
2023/02/25 03:50:10;;;;;;;38.38;21.10;;;5.80;99.90;;;;;;5048473;28;20052;-74
2023/02/25 03:52:36;;;;;;;40.28;21.23;;;5.90;99.90;;;;;;5048431;28;20238;-75
2023/02/25 03:55:02;;;;;;;;;;;6.00;99.90;;;;;;5030808;28;20031;-75
2023/02/25 03:57:40;;;;;;;41.03;20.93;;;6.00;99.90;;;;;;5030764;28;20715;-73
2023/02/25 04:00:15;;;;;;;46.40;25.85;;;6.10;99.90;;;;;;5048452;28;20025;-74
2023/02/25 04:02:42;;;;;;;43.33;23.02;;;6.10;99.90;;;;;;5048220;28;20509;-73
2023/02/25 04:05:12;;;;;;;41.17;23.10;;;6.20;99.90;;;;;;5030349;28;20048;-72
2023/02/25 04:07:38;;;;;;;42.13;22.48;;;6.20;99.90;;;;;;5048308;28;20511;-75
2023/02/25 04:10:06;;;;;;;49.53;23.38;;;6.20;99.90;;;;;;5048420;28;20036;-74
2023/02/25 04:12:32;;;;;;;39.95;22.77;;;6.30;99.90;;;;;;5048165;28;20021;-73
2023/02/25 04:14:57;;;;;;;;;;;6.30;99.90;;;;;;5048450;28;20083;-73
2023/02/25 04:17:23;;;;;;;41.75;20.95;;;6.40;99.90;;;;;;5048472;28;19916;-72
2023/02/25 04:19:48;;;;;;;;;;;6.40;99.90;;;;;;5048412;28;20028;-73
2023/02/25 04:22:14;;;;;;;36.08;18.90;;;6.50;99.90;;;;;;5030682;28;20321;-73
2023/02/25 04:24:40;;;;;;;;;;;6.40;99.90;;;;;;5048679;28;20114;-72
2023/02/25 04:27:06;;;;;;;39.95;18.60;;;6.50;99.90;;;;;;5030333;28;20368;-72
2023/02/25 04:29:32;;;;;;;33.53;19.45;;;6.60;99.90;;;;;;5030249;28;20029;-73
2023/02/25 04:31:57;;;;;;;;;;;6.60;99.90;;;;;;5048626;28;20052;-75
2023/02/25 04:34:23;;;;;;;37.97;19.05;;;6.60;99.90;;;;;;5047565;28;19952;-73
2023/02/25 04:36:49;;;;;;;35.72;17.33;;;6.60;99.90;;;;;;5047079;28;20506;-74
2023/02/25 04:39:15;;;;;;;;;;;6.60;99.90;;;;;;5048545;28;20040;-74
2023/02/25 04:41:41;;;;;;;37.78;19.05;;;6.60;99.90;;;;;;5047286;28;19905;-72
2023/02/25 04:44:07;;;;;;;;;;;6.60;99.90;;;;;;5047738;28;20041;-74
2023/02/25 04:46:36;;;;;;;40.20;17.55;;;6.60;99.90;;;;;;5045930;28;20388;-73
2023/02/25 04:49:02;;;;;;;38.05;17.65;;;6.60;99.90;;;;;;5047269;28;20082;-73
2023/02/25 04:51:28;;;;;;;39.45;19.08;;;6.70;99.90;;;;;;5047301;28;20179;-72
2023/02/25 04:53:54;;;;;;;;;;;6.70;99.90;;;;;;5029889;28;20155;-72
2023/02/25 04:56:19;;;;;;;34.20;18.33;;;6.70;99.90;;;;;;5047378;28;19955;-72
2023/02/25 04:58:45;;;;;;;;;;;6.70;99.90;;;;;;5029781;28;20186;-72
2023/02/25 05:01:11;;;;;;;39.70;19.25;;;6.70;99.90;;;;;;5029845;28;19935;-73
2023/02/25 05:03:38;;;;;;;36.95;19.65;;;6.70;99.90;;;;;;5047219;28;20156;-73
2023/02/25 05:06:03;;;;;;;;;;;6.70;99.90;;;;;;5048122;28;20021;-72
2023/02/25 05:08:30;;;;;;;35.88;17.88;;;6.80;99.90;;;;;;5047563;28;19912;-74
2023/02/25 05:10:56;;;;;;;41.13;19.92;;;6.70;99.90;;;;;;5047559;28;20021;-73
2023/02/25 05:13:22;;;;;;;;;;;6.70;99.90;;;;;;5047851;28;20029;-73
2023/02/25 05:15:51;;;;;;;37.83;19.95;;;6.70;99.90;;;;;;5046919;28;19909;-72
2023/02/25 05:18:17;;;;;;;41.00;20.52;;;6.70;99.90;;;;;;5029122;28;20170;-73
2023/02/25 05:20:44;;;;;;;;;;;6.70;99.90;;;;;;5047905;28;20108;-74
2023/02/25 05:23:10;;;;;;;41.35;20.33;;;6.60;99.90;;;;;;5029748;28;19948;-74
2023/02/25 05:25:40;;;;;;;38.67;19.52;;;6.70;99.90;;;;;;5047763;28;20021;-74
2023/02/25 05:28:15;;;;;;;45.50;22.02;;;6.70;99.90;;;;;;5051264;28;20053;-75
2023/02/25 05:30:41;;;;;;;42.97;23.10;;;6.60;99.90;;;;;;5033219;28;20056;-74
2023/02/25 05:33:07;;;;;;;;;;;6.60;99.90;;;;;;5051635;28;20072;-75
2023/02/25 05:35:33;;;;;;;42.90;20.88;;;6.60;99.90;;;;;;5051062;28;19991;-74
2023/02/25 05:38:00;;;;;;;35.92;17.23;;;6.60;99.90;;;;;;5033208;28;20675;-75
2023/02/25 05:40:26;;;;;;;26.17;11.43;;;6.70;99.90;;;;;;5051035;28;20064;-74
2023/02/25 05:42:52;;;;;;;25.95;10.63;;;6.70;99.90;;;;;;5050961;28;20135;-74
2023/02/25 05:45:17;;;;;;;;;;;6.70;99.90;;;;;;5033651;28;20107;-74
2023/02/25 05:47:44;;;;;;;11.07;5.13;;;6.80;99.90;;;;;;5033061;28;20448;-75
2023/02/25 05:50:10;;;;;;;9.38;4.60;;;6.70;99.90;;;;;;5033014;28;20064;-75
2023/02/25 05:52:36;;;;;;;11.63;6.03;;;6.80;99.90;;;;;;5050906;28;20028;-75
2023/02/25 05:55:01;;;;;;;;;;;6.70;99.90;;;;;;5033406;28;20035;-75
2023/02/25 05:57:27;;;;;;;8.57;4.13;;;6.70;99.90;;;;;;5033017;28;19948;-75
2023/02/25 05:59:53;;;;;;;;;;;6.70;99.90;;;;;;5033265;28;20029;-75
2023/02/25 06:02:18;;;;;;;7.07;3.35;;;6.70;99.90;;;;;;5050688;28;19999;-76
2023/02/25 06:04:44;;;;;;;;;;;6.60;99.90;;;;;;5033295;28;20119;-75
2023/02/25 06:07:10;;;;;;;10.38;5.38;;;6.70;99.90;;;;;;5051010;28;19912;-76
2023/02/25 06:09:36;;;;;;;;;;;6.70;99.90;;;;;;5033190;28;20025;-75
2023/02/25 06:12:02;;;;;;;4.45;2.35;;;6.70;99.90;;;;;;5050415;28;19908;-76
2023/02/25 06:14:27;;;;;;;;;;;6.70;99.90;;;;;;5050492;28;20044;-75
2023/02/25 06:16:56;;;;;;;8.57;3.05;;;6.70;99.90;;;;;;5050249;28;19930;-76
2023/02/25 06:19:25;;;;;;;12.35;4.13;;;6.70;99.90;;;;;;5050307;28;20175;-76
2023/02/25 06:21:53;;;;;;;8.52;3.45;;;6.60;99.90;;;;;;5032178;28;20116;-76
2023/02/25 06:24:19;;;;;;;9.30;3.83;;;6.60;99.90;;;;;;5032378;28;20501;-76
2023/02/25 06:26:45;;;;;;;8.07;3.60;;;6.70;99.90;;;;;;5050151;28;20029;-75
2023/02/25 06:29:11;;;;;;;;;;;6.60;99.90;;;;;;5050607;28;20032;-75
2023/02/25 06:31:37;;;;;;;8.45;3.92;;;6.60;99.90;;;;;;5032147;28;19908;-75
2023/02/25 06:34:02;;;;;;;;;;;6.60;99.90;;;;;;5032796;28;20039;-76
2023/02/25 06:36:28;;;;;;;9.25;3.45;;;6.60;99.90;;;;;;5031728;28;19931;-75
2023/02/25 06:38:54;;;;;;;8.38;3.38;;;6.60;99.90;;;;;;5031112;28;20056;-75
2023/02/25 06:41:20;;;;;;;;;;;6.60;99.90;;;;;;5032462;28;20159;-76
2023/02/25 06:43:50;;;;;;;8.13;3.73;;;6.60;99.90;;;;;;5050085;28;19924;-73
2023/02/25 06:46:18;;;;;;;10.18;4.25;;;6.60;99.90;;;;;;5031971;28;20031;-76
2023/02/25 06:48:43;;;;;;;10.52;4.90;;;6.60;99.90;;;;;;5031956;28;20029;-75
2023/02/25 06:51:11;;;;;;;;;;;6.60;99.90;;;;;;5050328;28;20448;-74
2023/02/25 06:53:42;;;;;;;7.57;3.63;;;6.60;99.90;;;;;;5031915;28;19995;-74
2023/02/25 06:56:10;;;;;;;5.93;2.70;;;6.60;99.90;;;;;;5049670;28;20025;-74
2023/02/25 06:58:36;;;;;;;4.78;2.15;;;6.70;99.90;;;;;;5031791;28;20039;-74
2023/02/25 07:01:13;;;;;;;6.35;1.70;;;6.70;99.90;;;;;;5048233;28;20056;-75
2023/02/25 07:03:39;;;;;;;4.05;1.10;;;6.70;99.90;;;;;;5031791;28;20834;-73
2023/02/25 07:06:05;;;;;;;;;;;6.70;99.90;;;;;;5032290;28;20028;-74
2023/02/25 07:08:31;;;;;;;3.00;1.30;;;6.60;99.90;;;;;;5031504;28;19913;-73
2023/02/25 07:11:08;;;;;;;;;;;6.60;99.90;;;;;;5049787;28;20036;-73
2023/02/25 07:13:34;;;;;;;4.22;1.15;;;6.50;99.90;;;;;;5049098;28;19920;-75
2023/02/25 07:15:59;;;;;;;;;;;6.40;99.90;;;;;;5032165;28;20041;-74
2023/02/25 07:18:25;;;;;;;2.42;0.60;;;6.40;99.90;;;;;;5031569;28;19909;-75
2023/02/25 07:20:50;;;;;;;;;;;6.30;99.90;;;;;;5049231;28;20448;-74
2023/02/25 07:23:16;;;;;;;2.25;0.70;;;6.30;99.90;;;;;;5031352;28;20385;-73
2023/02/25 07:25:41;;;;;;;;;;;6.30;99.90;;;;;;5049672;28;20120;-74
2023/02/25 07:28:10;;;;;;;1.67;0.60;;;6.20;99.90;;;;;;5048995;28;19912;-72
2023/02/25 07:30:35;;;;;;;1.15;0.47;;;6.10;99.90;;;;;;5048903;28;20028;-75
2023/02/25 07:33:01;;;;;;;;;;;6.00;99.90;;;;;;5049139;28;20848;-73
2023/02/25 07:35:27;;;;;;;1.67;0.65;;;6.00;99.90;;;;;;5048465;28;20255;-74
2023/02/25 07:37:52;;;;;;;;;;;5.90;99.90;;;;;;5030272;28;20168;-73
2023/02/25 07:40:18;;;;;;;3.10;0.40;;;5.90;99.90;;;;;;5030297;28;19917;-74
2023/02/25 07:42:44;;;;;;;2.97;0.70;;;5.90;99.90;;;;;;5030658;28;20041;-74
2023/02/25 07:45:10;;;;;;;;;;;5.90;99.90;;;;;;5030734;28;20043;-72
2023/02/25 07:47:36;;;;;;;3.15;0.93;;;5.90;99.90;;;;;;5030752;28;20034;-74
2023/02/25 07:50:06;;;;;;;2.80;0.77;;;5.80;99.90;;;;;;5030113;28;20028;-73
2023/02/25 07:52:32;;;;;;;5.07;0.70;;;5.80;99.90;;;;;;5048630;28;20100;-73
2023/02/25 07:54:58;;;;;;;;;;;5.80;99.90;;;;;;5031069;28;20032;-74
2023/02/25 07:57:23;;;;;;;5.88;0.82;;;5.80;99.90;;;;;;5048621;28;20289;-74
2023/02/25 07:59:49;;;;;;;;;;;5.80;99.90;;;;;;5030956;28;20709;-74
2023/02/25 08:02:14;;;;;;;3.53;1.80;;;5.80;99.90;;;;;;5030085;28;19909;-71
2023/02/25 08:04:40;;;;;;;;;;;5.90;99.90;;;;;;5030812;28;20033;-72
2023/02/25 08:07:06;;;;;;;3.88;0.70;;;6.00;99.90;;;;;;5030523;28;19912;-72
2023/02/25 08:09:31;;;;;;;;;;;6.10;99.90;;;;;;5030859;28;20075;-71
2023/02/25 08:11:57;;;;;;;4.13;0.90;;;6.20;99.90;;;;;;5048578;28;19915;-72
2023/02/25 08:14:23;;;;;;;;;;;6.40;99.90;;;;;;5030841;28;20025;-72
2023/02/25 08:16:49;;;;;;;3.55;1.13;;;6.50;99.90;;;;;;5030205;28;19911;-71
2023/02/25 08:19:15;;;;;;;2.33;1.00;;;6.70;99.90;;;;;;5048278;28;20115;-72
2023/02/25 08:21:41;;;;;;;;;;;6.70;99.90;;;;;;5030892;28;20116;-71
2023/02/25 08:24:08;;;;;;;4.67;1.20;;;6.90;99.90;;;;;;5029960;28;20007;-71
2023/02/25 08:26:34;;;;;;;2.25;1.10;;;6.80;99.90;;;;;;5029489;28;20524;-72
2023/02/25 08:28:59;;;;;;;;;;;6.80;99.90;;;;;;5030481;28;20614;-72
2023/02/25 08:31:25;;;;;;;2.63;1.20;;;6.80;99.90;;;;;;5048140;28;19959;-72
2023/02/25 08:33:51;;;;;;;;;;;6.80;99.90;;;;;;5048319;28;20087;-72
2023/02/25 08:36:28;;;;;;;3.30;1.15;;;6.80;99.90;;;;;;5048024;28;19935;-72
2023/02/25 08:38:56;;;;;;;2.60;1.20;;;6.80;99.90;;;;;;5029900;28;20464;-72
2023/02/25 08:41:22;;;;;;;5.03;1.30;;;6.80;99.90;;;;;;5048045;28;20124;-73
2023/02/25 08:43:50;;;;;;;;;;;6.80;99.90;;;;;;5030577;28;20116;-72
2023/02/25 08:46:16;;;;;;;3.42;1.55;;;6.70;99.90;;;;;;5030108;28;19915;-72
2023/02/25 08:48:41;;;;;;;;;;;6.60;99.90;;;;;;5048203;28;20029;-72
2023/02/25 08:51:09;;;;;;;3.55;1.15;;;6.60;99.90;;;;;;5047627;28;19935;-73
2023/02/25 08:53:37;;;;;;;2.95;1.10;;;6.60;99.90;;;;;;5029967;28;20063;-72
2023/02/25 08:56:04;;;;;;;4.07;1.27;;;6.80;99.90;;;;;;5047927;28;20124;-72
2023/02/25 08:58:31;;;;;;;3.22;1.60;;;6.90;99.90;;;;;;5047815;28;20036;-73
2023/02/25 09:00:57;;;;;;;3.13;1.30;;;7.10;99.90;;;;;;5030700;28;20035;-73
2023/02/25 09:03:22;;;;;;;;;;;7.40;99.90;;;;;;5034061;28;20435;-74
2023/02/25 09:05:54;;;;;;;2.83;0.80;;;7.60;99.90;;;;;;5051781;28;19939;-73
2023/02/25 09:08:20;;;;;;;5.80;1.23;;;7.80;99.90;;;;;;5051449;28;20032;-73
2023/02/25 09:10:46;;;;;;;;;;;7.90;99.90;;;;;;5052168;28;20493;-74
2023/02/25 09:13:12;;;;;;;3.60;1.60;;;7.90;99.90;;;;;;5051642;28;19917;-73
2023/02/25 09:15:39;;;;;;;1.98;0.88;;;7.80;99.90;;;;;;5033416;28;20406;-74
2023/02/25 09:18:05;;;;;;;2.95;1.38;;;7.70;99.90;;;;;;5033595;28;20025;-73
2023/02/25 09:20:31;;;;;;;;;;;7.50;99.90;;;;;;5051840;28;20812;-73
2023/02/25 09:22:58;;;;;;;3.10;1.15;;;7.40;99.90;;;;;;5051517;28;19912;-73
2023/02/25 09:25:24;;;;;;;4.43;1.25;;;7.40;99.90;;;;;;5033637;28;20657;-73
2023/02/25 09:27:50;;;;;;;2.28;0.85;;;7.30;99.90;;;;;;5050989;28;20053;-73
2023/02/25 09:30:16;;;;;;;;;;;7.20;99.90;;;;;;5051874;28;20450;-74
2023/02/25 09:32:41;;;;;;;1.98;0.85;;;7.30;99.90;;;;;;5033152;28;20431;-72
2023/02/25 09:35:08;;;;;;;;;;;7.30;99.90;;;;;;5052082;28;20025;-74
2023/02/25 09:37:34;;;;;;;1.98;0.80;;;7.50;99.90;;;;;;5033191;28;19920;-74
2023/02/25 09:39:59;;;;;;;;;;;7.50;99.90;;;;;;5051702;28;20168;-74
2023/02/25 09:42:42;;;;;;;1.42;0.52;;;7.60;99.90;;;;;;5033244;28;19912;-73
2023/02/25 09:45:14;;;;;;;2.03;0.70;;;7.70;99.90;;;;;;5051075;28;20037;-75
2023/02/25 09:47:57;;;;;;;2.47;0.80;;;7.70;99.90;;;;;;5051110;28;20086;-74
2023/02/25 09:50:39;;;;;;;1.45;0.57;;;7.80;99.90;;;;;;5050992;28;20033;-74
2023/02/25 09:53:22;;;;;;;2.00;0.40;;;7.90;99.90;;;;;;5033099;28;20119;-74
2023/02/25 09:55:51;;;;;;;1.65;0.50;;;8.10;99.70;;;;;;5032869;28;20021;-74
2023/02/25 09:58:25;;;;;;;1.30;0.45;;;8.40;94.50;;;;;;5032626;28;20452;-74
2023/02/25 10:01:06;;;;;;;1.25;0.63;;;8.30;94.70;;;;;;5050255;28;20115;-72
2023/02/25 10:03:50;;;;;;;1.30;0.50;;;8.30;95.80;;;;;;5032651;28;20142;-74
2023/02/25 10:06:30;;;;;;;1.90;0.68;;;8.10;96.30;;;;;;5032372;28;20025;-74
2023/02/25 10:09:29;;;;;;;1.73;0.65;;;8.00;97.50;;;;;;5050268;28;20436;-73
2023/02/25 10:12:09;;;;;;;2.03;0.60;;;7.80;97.10;;;;;;5032105;28;20028;-75
2023/02/25 10:14:56;;;;;;;3.13;0.70;;;7.60;99.40;;;;;;5032250;28;20057;-74
2023/02/25 10:17:33;;;;;;;;;;;7.50;99.90;;;;;;5032844;28;20025;-75
2023/02/25 10:20:29;;;;;;;1.20;0.52;;;7.50;99.90;;;;;;5050277;28;19909;-74
2023/02/25 10:22:57;;;;;;;1.58;0.73;;;7.50;99.90;;;;;;5049924;28;20041;-76
2023/02/25 10:25:31;;;;;;;4.13;0.65;;;7.50;98.20;;;;;;5050365;28;20025;-75
2023/02/25 10:28:05;;;;;;;1.20;0.45;;;7.50;99.90;;;;;;5050217;28;20040;-76
2023/02/25 10:30:56;;;;;;;1.35;0.65;;;7.70;97.60;;;;;;5032105;28;20044;-74
2023/02/25 10:33:23;;;;;;;1.58;0.52;;;7.90;95.80;;;;;;5050367;28;20574;-75
2023/02/25 10:36:04;;;;;;;2.00;0.68;;;8.10;98.40;;;;;;5049569;28;20033;-74
2023/02/25 10:38:30;;;;;;;1.05;0.45;;;8.40;95.20;;;;;;5031867;28;20077;-75
2023/02/25 10:40:57;;;;;;;;;;;8.60;97.50;;;;;;5050048;28;20057;-74
2023/02/25 10:43:24;;;;;;;3.73;0.60;;;8.60;95.50;;;;;;5031715;28;19912;-73
2023/02/25 10:46:02;;;;;;;1.40;0.52;;;8.80;93.90;;;;;;5049904;28;20033;-74
2023/02/25 10:48:29;;;;;;;1.10;0.57;;;8.90;95.40;;;;;;5049463;28;20091;-76
2023/02/25 10:51:01;;;;;;;1.30;0.75;;;9.00;91.60;;;;;;5049552;28;20029;-75
2023/02/25 10:53:27;;;;;;;2.42;0.73;;;9.00;91.00;;;;;;5031817;28;20033;-74
2023/02/25 10:55:53;;;;;;;;;;;9.00;90.90;;;;;;5050064;28;20029;-74
2023/02/25 10:58:43;;;;;;;9.18;0.68;;;8.90;91.30;;;;;;5049166;28;20412;-75
2023/02/25 11:01:08;;;;;;;3.83;0.68;;;8.80;91.60;;;;;;5031022;28;20083;-75
2023/02/25 11:03:42;;;;;;;;;;;8.70;92.90;;;;;;5049680;28;20521;-75
2023/02/25 11:06:28;;;;;;;1.35;0.60;;;8.70;94.50;;;;;;5049351;28;20749;-73
2023/02/25 11:08:57;;;;;;;2.45;0.80;;;8.80;92.60;;;;;;5038346;28;20040;-75
2023/02/25 11:11:32;;;;;;;1.95;0.63;;;8.80;93.80;;;;;;5049078;28;20104;-75
2023/02/25 11:14:12;;;;;;;1.85;0.70;;;8.80;92.30;;;;;;5049169;28;20108;-75
2023/02/25 11:16:39;;;;;;;1.27;0.73;;;8.80;91.20;;;;;;5042213;28;20025;-75
2023/02/25 11:19:24;;;;;;;1.38;0.63;;;8.60;91.70;;;;;;5048999;28;20021;-75
2023/02/25 11:21:51;;;;;;;1.88;0.80;;;8.50;90.30;;;;;;5049449;28;20417;-76
2023/02/25 11:24:32;;;;;;;2.38;0.82;;;8.40;90.60;;;;;;5048325;28;20025;-75
2023/02/25 11:27:00;;;;;;;1.45;0.70;;;8.30;91.60;;;;;;5030980;28;20029;-76
2023/02/25 11:29:42;;;;;;;1.25;0.52;;;8.20;91.50;;;;;;5030888;28;20032;-75
2023/02/25 11:32:12;;;;;;;2.25;0.70;;;8.00;91.70;;;;;;5048561;28;20033;-74
2023/02/25 11:35:08;;;;;;;1.70;0.77;;;7.90;93.60;;;;;;5031009;28;20029;-75
2023/02/25 11:37:42;;;;;;;1.65;0.70;;;8.00;93.10;;;;;;5029769;28;20049;-76
2023/02/25 11:40:32;;;;;;;0.85;0.40;;;8.10;95.60;;;;;;5048578;28;20029;-74
2023/02/25 11:43:04;;;;;;;2.25;0.50;;;8.60;93.70;;;;;;5030707;28;20520;-74
2023/02/25 11:45:37;;;;;;;0.93;0.50;;;8.90;92.00;;;;;;5030758;28;20509;-76
2023/02/25 11:48:14;;;;;;;1.67;0.75;;;9.00;87.60;;;;;;5048713;28;20060;-75
2023/02/25 11:50:46;;;;;;;;;;;8.90;90.50;;;;;;5031077;28;20033;-74
2023/02/25 11:53:26;;;;;;;1.80;0.70;;;8.80;91.00;;;;;;5048373;28;19905;-74
2023/02/25 11:56:16;;;;;;;1.10;0.47;;;8.90;90.80;;;;;;5030600;28;20035;-75
2023/02/25 11:59:28;;;;;;;0.95;0.40;;;8.70;90.50;;;;;;5048096;28;20021;-74
2023/02/25 12:02:13;;;;;;;1.80;0.70;;;8.50;91.70;;;;;;5015563;28;20588;-73
2023/02/25 12:05:04;;;;;;;1.58;0.50;;;8.30;93.20;;;;;;5030120;28;20037;-74
2023/02/25 12:07:44;;;;;;;2.67;0.65;;;8.40;92.00;;;;;;5048325;28;20586;-76
2023/02/25 12:10:41;;;;;;;1.50;0.43;;;8.60;90.50;;;;;;5048084;28;20029;-75
2023/02/25 12:13:31;;;;;;;1.40;0.30;;;8.70;89.50;;;;;;5030082;28;20448;-74
2023/02/25 12:15:56;;;;;;;0.80;0.30;;;8.90;85.30;;;;;;5029832;28;20413;-74
2023/02/25 12:18:31;;;;;;;;;;;8.90;85.30;;;;;;5047991;28;20029;-74
2023/02/25 12:20:59;;;;;;;0.95;0.40;;;9.00;82.70;;;;;;5047664;28;19909;-74
2023/02/25 12:23:50;;;;;;;1.02;0.32;;;9.10;84.00;;;;;;5047554;28;20064;-75
2023/02/25 12:26:48;;;;;;;1.65;0.50;;;9.20;80.20;;;;;;5029619;28;20796;-75
2023/02/25 12:29:35;;;;;;;2.05;0.55;;;9.20;81.20;;;;;;5047566;28;20091;-75
2023/02/25 12:32:25;;;;;;;1.63;1.08;;;9.30;77.70;;;;;;5047679;28;20085;-74
2023/02/25 12:35:14;;;;;;;3.03;0.50;;;9.30;77.90;;;;;;5048539;28;20120;-72
2023/02/25 12:38:07;;;;;;;1.85;0.43;;;9.30;75.60;;;;;;5025556;28;20524;-74
2023/02/25 12:41:27;;;;;;;0.43;0.30;;;9.40;73.00;;;;;;5051339;28;20028;-74
2023/02/25 12:43:59;;;;;;;0.82;0.20;;;9.20;71.90;;;;;;4972925;28;20042;-73
2023/02/25 12:46:25;;;;;;;4.18;0.50;;;8.90;71.80;;;;;;5040979;28;20051;-73
2023/02/25 12:49:07;;;;;;;;;;;8.80;73.80;;;;;;5051631;28;20500;-74
2023/02/25 12:52:02;;;;;;;3.53;0.35;;;8.80;72.70;;;;;;5051660;28;19966;-73
2023/02/25 12:54:56;;;;;;;1.08;0.30;;;9.10;72.60;;;;;;5051417;28;20020;-73
2023/02/25 12:58:02;;;;;;;0.88;0.30;;;9.10;68.50;;;;;;5052000;28;20443;-74
2023/02/25 13:00:49;;;;;;;1.33;0.30;;;9.00;65.60;;;;;;4985631;28;20041;-75
2023/02/25 13:03:37;;;;;;;2.38;0.40;;;8.80;65.20;;;;;;5033796;28;20528;-74
2023/02/25 13:06:30;;;;;;;3.17;0.80;;;8.80;64.20;;;;;;5051644;28;20032;-74
2023/02/25 13:08:59;;;;;;;3.72;0.50;;;8.80;64.50;;;;;;5051451;28;20454;-74
2023/02/25 13:11:40;;;;;;;7.20;1.45;;;9.00;65.40;;;;;;5063471;28;20454;-74
2023/02/25 13:14:22;;;;;;;2.30;0.60;;;9.30;64.60;;;;;;5070206;28;20488;-75
2023/02/25 13:17:20;;;;;;;2.75;0.68;;;9.40;62.80;;;;;;5069729;28;20036;-75
2023/02/25 13:20:24;;;;;;;1.38;0.52;;;9.40;62.90;;;;;;5071031;28;20036;-74
2023/02/25 13:23:05;;;;;;;1.25;0.40;;;9.50;63.20;;;;;;5069921;28;20083;-75
2023/02/25 13:25:45;;;;;;;2.17;0.60;;;9.70;62.10;;;;;;5070091;28;20041;-74
2023/02/25 13:28:38;;;;;;;6.30;0.50;;;10.00;62.40;;;;;;5069936;28;20032;-74
2023/02/25 13:31:10;;;;;;;2.65;0.30;;;10.30;61.60;;;;;;5071294;28;20111;-74